Houston, Texas
Traffic Map
Current Weather Conditions
Houston, Texas
Scattered Clouds
Scattered Clouds
19°
Feels Like: 19°
Wind Chill: 19° Ceiling: Unl
Heat Index: 19° Visibility: 10mi
Dew Point: Wind: 24mph
Humidity: 47% Direction: 310° (NW)
Pressure: 29.65in Gusts: 41mph
Raw Report DataKIAH 222053Z 31021G36KT 10SM SCT050 19/08 A2965 RMK AO2 PK WND 31039/2025 SLP039 T01940078 53008
Traffic Incident Summary
Active as of:
Severity:
Category:
InformationThere was an issue retrieving the traffic information for this location. Please try a different location or try again shortly.
Advertisements
Track Severe Weather on mobile